createdAt,value
2023-11-02T00:00:10.692Z,47.91
2023-11-02T00:01:42.327Z,47.98
2023-11-02T00:03:16.676Z,47.65
2023-11-02T00:04:48.930Z,47.56
2023-11-02T00:06:29.695Z,47.52
2023-11-02T00:08:01.325Z,47.75
2023-11-02T00:09:32.948Z,47.70
2023-11-02T00:11:04.776Z,47.63
2023-11-02T00:12:36.575Z,47.53
2023-11-02T00:14:10.183Z,47.67
2023-11-02T00:15:42.376Z,47.72
2023-11-02T00:17:37.767Z,47.83
2023-11-02T00:19:18.839Z,47.79
2023-11-02T00:20:51.297Z,47.80
2023-11-02T00:22:22.901Z,47.96
2023-11-02T00:23:54.646Z,47.84
2023-11-02T00:25:32.920Z,47.93
2023-11-02T00:27:04.680Z,47.87
2023-11-02T00:28:38.644Z,47.89
2023-11-02T00:30:10.535Z,47.89
2023-11-02T00:31:42.235Z,47.76
2023-11-02T00:33:14.678Z,47.85
2023-11-02T00:34:46.941Z,47.87
2023-11-02T00:36:19.077Z,47.79
2023-11-02T00:37:50.815Z,48.00
2023-11-02T00:39:22.338Z,48.03
2023-11-02T00:40:54.708Z,47.97
2023-11-02T00:42:26.311Z,48.15
2023-11-02T00:43:58.564Z,48.16
2023-11-02T00:45:30.183Z,48.00
2023-11-02T00:47:01.836Z,48.26
2023-11-02T00:48:34.153Z,48.33
2023-11-02T00:50:07.198Z,48.12
2023-11-02T00:51:39.545Z,48.10
2023-11-02T00:53:12.836Z,47.98
2023-11-02T00:54:44.615Z,48.22
2023-11-02T00:56:16.665Z,47.96
2023-11-02T00:57:48.652Z,48.04
2023-11-02T00:59:20.710Z,48.33
2023-11-02T01:00:55.312Z,48.09
2023-11-02T01:02:29.365Z,48.29
2023-11-02T01:04:07.201Z,48.33
2023-11-02T01:05:38.884Z,48.46
2023-11-02T01:07:14.116Z,48.36
2023-11-02T01:08:45.905Z,48.72
2023-11-02T01:10:17.578Z,48.57
2023-11-02T01:11:49.269Z,48.37
2023-11-02T01:13:21.177Z,48.52
2023-11-02T01:14:53.204Z,48.83
2023-11-02T01:16:25.064Z,48.86
2023-11-02T01:17:56.723Z,48.85
2023-11-02T01:19:48.592Z,49.08
2023-11-02T01:21:20.455Z,49.00
2023-11-02T01:22:53.566Z,48.98
2023-11-02T01:24:25.361Z,48.91
2023-11-02T01:25:56.941Z,49.11
2023-11-02T01:27:29.394Z,49.20
2023-11-02T01:29:01.069Z,49.05
2023-11-02T01:30:42.023Z,49.06
2023-11-02T01:32:13.604Z,49.06
2023-11-02T01:33:55.471Z,49.19
2023-11-02T01:35:30.045Z,49.22
2023-11-02T01:37:02.133Z,49.52
2023-11-02T01:38:34.257Z,49.42
2023-11-02T01:40:09.824Z,49.41
2023-11-02T01:41:51.360Z,49.61
2023-11-02T01:43:26.143Z,49.39
2023-11-02T01:45:06.588Z,49.27
2023-11-02T01:46:42.021Z,49.11
2023-11-02T01:48:13.922Z,49.26
2023-11-02T01:49:48.888Z,48.99
2023-11-02T01:51:23.792Z,49.23
2023-11-02T01:53:03.047Z,49.15
2023-11-02T01:54:37.481Z,49.66
2023-11-02T01:56:18.401Z,49.68
2023-11-02T02:00:17.196Z,49.71
2023-11-02T02:01:53.247Z,49.97
2023-11-02T02:03:28.247Z,50.08
2023-11-02T02:05:04.354Z,50.37
2023-11-02T02:06:45.020Z,50.19
2023-11-02T02:08:25.645Z,50.52
2023-11-02T02:10:02.947Z,50.39
2023-11-02T02:11:47.487Z,50.46
2023-11-02T02:13:23.401Z,50.01
2023-11-02T02:15:04.733Z,49.84
2023-11-02T02:16:41.847Z,50.04
2023-11-02T02:18:32.160Z,50.05
2023-11-02T02:20:06.854Z,49.85
2023-11-02T02:21:39.947Z,49.90
2023-11-02T02:23:20.615Z,49.95
2023-11-02T02:24:59.528Z,50.10
2023-11-02T02:26:54.933Z,49.86
2023-11-02T02:28:30.911Z,49.72
2023-11-02T02:30:14.729Z,49.45
2023-11-02T02:32:05.208Z,49.86
2023-11-02T02:33:37.458Z,49.64
2023-11-02T02:35:21.098Z,49.73
2023-11-02T02:36:52.735Z,49.79
2023-11-02T02:38:29.864Z,49.63
2023-11-02T02:40:08.434Z,49.97
2023-11-02T02:41:43.035Z,50.38
2023-11-02T02:43:14.598Z,50.43
2023-11-02T02:44:47.663Z,50.16
2023-11-02T02:46:20.682Z,50.49
2023-11-02T02:47:52.307Z,50.38
2023-11-02T02:49:24.157Z,50.28
2023-11-02T02:50:59.085Z,50.27
2023-11-02T02:52:31.112Z,49.99
2023-11-02T02:54:11.905Z,50.16
2023-11-02T02:55:44.263Z,50.59
2023-11-02T02:57:17.512Z,50.57
2023-11-02T02:58:51.744Z,50.50
2023-11-02T03:00:23.621Z,50.48
2023-11-02T03:01:55.711Z,50.49
2023-11-02T03:03:27.440Z,50.47
2023-11-02T03:04:59.177Z,50.56
2023-11-02T03:06:30.795Z,50.51
2023-11-02T03:08:03.502Z,50.14
2023-11-02T03:09:35.458Z,50.32
2023-11-02T03:11:15.385Z,50.96
2023-11-02T03:12:51.044Z,50.53
2023-11-02T03:14:22.576Z,50.65
2023-11-02T03:15:54.647Z,50.97
2023-11-02T03:17:30.112Z,50.83
2023-11-02T03:19:02.368Z,51.01
2023-11-02T03:20:34.309Z,51.43
2023-11-02T03:22:06.053Z,51.70
2023-11-02T03:23:46.648Z,51.57
2023-11-02T03:25:25.309Z,51.60
2023-11-02T03:27:03.364Z,52.21
2023-11-02T03:28:43.743Z,52.20
2023-11-02T03:30:29.461Z,51.66
2023-11-02T03:32:06.833Z,51.75
2023-11-02T03:33:42.326Z,52.53
2023-11-02T03:35:21.572Z,51.95
2023-11-02T03:37:02.281Z,52.20
2023-11-02T03:38:47.981Z,51.86
2023-11-02T03:40:34.617Z,52.47
2023-11-02T03:42:06.175Z,52.75
2023-11-02T03:43:48.960Z,52.26
2023-11-02T03:45:42.880Z,52.49
2023-11-02T03:47:21.763Z,53.12
2023-11-02T03:49:00.055Z,52.87
2023-11-02T03:50:34.930Z,52.89
2023-11-02T03:52:12.719Z,52.77
2023-11-02T03:53:52.911Z,53.28
2023-11-02T03:55:24.653Z,53.03
2023-11-02T03:57:03.638Z,53.27
2023-11-02T03:58:38.856Z,53.14
2023-11-02T04:00:14.204Z,53.21
2023-11-02T04:02:21.898Z,52.99
2023-11-02T04:03:53.947Z,53.24
2023-11-02T04:05:25.697Z,53.15
2023-11-02T04:07:01.018Z,53.07
2023-11-02T04:08:34.714Z,53.03
2023-11-02T04:10:08.561Z,52.77
2023-11-02T04:11:48.829Z,52.79
2023-11-02T04:13:20.636Z,52.87
2023-11-02T04:14:52.815Z,52.86
2023-11-02T04:16:26.519Z,52.77
2023-11-02T04:18:01.091Z,52.97
2023-11-02T04:19:32.833Z,52.92
2023-11-02T04:21:04.606Z,53.27
2023-11-02T04:22:36.168Z,52.96
2023-11-02T04:24:08.109Z,53.01
2023-11-02T04:25:40.465Z,52.86
2023-11-02T04:27:12.310Z,53.23
2023-11-02T04:28:44.172Z,53.47
2023-11-02T04:30:18.649Z,53.20
2023-11-02T04:31:50.668Z,53.36
2023-11-02T04:33:22.379Z,53.14
2023-11-02T04:34:54.329Z,53.25
2023-11-02T04:36:26.043Z,53.28
2023-11-02T04:38:07.002Z,53.14
2023-11-02T04:39:38.574Z,53.02
2023-11-02T04:41:10.671Z,53.03
2023-11-02T04:42:42.390Z,53.31
2023-11-02T04:44:14.123Z,53.09
2023-11-02T04:45:46.676Z,53.15
2023-11-02T04:47:18.251Z,53.02
2023-11-02T04:48:50.206Z,53.17
2023-11-02T04:50:22.036Z,53.07
2023-11-02T04:51:57.203Z,53.25
2023-11-02T04:53:28.883Z,53.65
2023-11-02T04:55:00.578Z,53.55
2023-11-02T04:56:32.238Z,53.37
2023-11-02T04:58:04.325Z,53.30
2023-11-02T04:59:36.212Z,53.32
2023-11-02T05:01:07.704Z,52.98
2023-11-02T05:02:39.715Z,52.52
2023-11-02T05:04:11.439Z,52.54
2023-11-02T05:05:43.156Z,52.86
2023-11-02T05:07:14.846Z,52.65
2023-11-02T05:08:46.611Z,53.16
2023-11-02T05:10:18.415Z,53.25
2023-11-02T05:11:50.044Z,53.45
2023-11-02T05:13:21.831Z,53.75
2023-11-02T05:14:53.509Z,53.45
2023-11-02T05:16:25.160Z,53.57
2023-11-02T05:17:56.924Z,53.39
2023-11-02T05:19:28.636Z,53.48
2023-11-02T05:21:01.206Z,53.51
2023-11-02T05:22:32.952Z,53.45
2023-11-02T05:24:05.043Z,53.23
2023-11-02T05:25:36.841Z,53.29
2023-11-02T05:27:08.488Z,52.96
2023-11-02T05:28:40.496Z,52.93
2023-11-02T05:30:12.351Z,53.11
2023-11-02T05:31:44.100Z,52.86
2023-11-02T05:33:15.966Z,53.28
2023-11-02T05:34:47.598Z,53.13
2023-11-02T05:36:26.590Z,53.34
2023-11-02T05:37:58.402Z,53.34
2023-11-02T05:39:30.191Z,53.79
2023-11-02T05:41:01.883Z,53.51
2023-11-02T05:42:33.448Z,54.17
2023-11-02T05:44:05.782Z,53.81
2023-11-02T05:45:37.617Z,53.90
2023-11-02T05:47:09.587Z,53.72
2023-11-02T05:48:41.249Z,53.82
2023-11-02T05:50:13.866Z,53.78
2023-11-02T05:51:45.866Z,53.63
2023-11-02T05:53:17.497Z,53.40
2023-11-02T05:54:49.190Z,53.79
2023-11-02T05:56:20.759Z,53.88
2023-11-02T05:57:55.142Z,53.81
2023-11-02T05:59:27.353Z,53.76
2023-11-02T06:00:59.211Z,53.71
2023-11-02T06:02:33.596Z,53.82
2023-11-02T06:04:05.355Z,53.82
2023-11-02T06:05:37.039Z,54.02
2023-11-02T06:07:08.783Z,54.32
2023-11-02T06:08:40.488Z,54.58
2023-11-02T06:10:12.098Z,54.54
2023-11-02T06:11:44.022Z,54.43
2023-11-02T06:13:15.656Z,54.24
2023-11-02T06:14:47.319Z,54.37
2023-11-02T06:16:18.809Z,54.79
2023-11-02T06:17:50.591Z,54.68
2023-11-02T06:19:22.405Z,54.43
2023-11-02T06:20:54.288Z,54.53
2023-11-02T06:22:25.932Z,54.65
2023-11-02T06:23:57.999Z,54.96
2023-11-02T06:25:29.675Z,54.89
2023-11-02T06:27:01.347Z,54.64
2023-11-02T06:28:33.391Z,54.94
2023-11-02T06:30:05.385Z,54.67
2023-11-02T06:31:37.415Z,54.83
2023-11-02T06:33:09.178Z,54.76
2023-11-02T06:34:41.318Z,54.39
2023-11-02T06:36:13.011Z,54.51
2023-11-02T06:37:59.993Z,54.50
2023-11-02T06:39:31.753Z,54.68
2023-11-02T06:41:03.778Z,54.53
2023-11-02T06:42:36.103Z,54.29
2023-11-02T06:44:08.123Z,54.28
2023-11-02T06:45:39.904Z,53.95
2023-11-02T06:47:12.561Z,53.87
2023-11-02T06:48:44.296Z,53.83
2023-11-02T06:50:15.973Z,53.94
2023-11-02T06:51:47.515Z,54.00
2023-11-02T06:53:19.195Z,54.02
2023-11-02T06:54:50.771Z,53.80
2023-11-02T06:56:26.544Z,53.86
2023-11-02T06:57:58.157Z,54.01
2023-11-02T06:59:29.669Z,54.18
2023-11-02T07:01:01.611Z,54.36
2023-11-02T07:02:33.697Z,54.58
2023-11-02T07:04:06.132Z,54.49
2023-11-02T07:05:38.263Z,54.57
2023-11-02T07:07:10.416Z,54.45
2023-11-02T07:08:42.461Z,54.49
2023-11-02T07:10:15.797Z,54.36
2023-11-02T07:11:47.391Z,54.33
2023-11-02T07:13:20.169Z,54.22
2023-11-02T07:14:51.807Z,54.15
2023-11-02T07:16:23.466Z,54.09
2023-11-02T07:17:54.979Z,54.01
2023-11-02T07:19:26.613Z,54.32
2023-11-02T07:20:58.303Z,54.35
2023-11-02T07:22:29.957Z,54.18
2023-11-02T07:24:03.493Z,54.45
2023-11-02T07:25:35.364Z,54.50
2023-11-02T07:27:08.749Z,54.53
2023-11-02T07:28:40.374Z,54.30
2023-11-02T07:30:12.570Z,54.75
2023-11-02T07:31:45.631Z,54.69
2023-11-02T07:33:18.872Z,54.89
2023-11-02T07:34:50.524Z,54.80
2023-11-02T07:36:25.983Z,54.75
2023-11-02T07:37:58.170Z,54.80
2023-11-02T07:39:30.254Z,54.95
2023-11-02T07:41:01.891Z,54.97
2023-11-02T07:42:33.479Z,55.14
2023-11-02T07:44:05.208Z,55.33
2023-11-02T07:45:37.223Z,55.29
2023-11-02T07:47:08.878Z,55.31
2023-11-02T07:48:41.494Z,55.34
2023-11-02T07:50:13.579Z,55.30
2023-11-02T07:51:45.253Z,54.94
2023-11-02T07:53:16.951Z,55.24
2023-11-02T07:54:48.757Z,55.29
2023-11-02T07:56:20.371Z,55.37
2023-11-02T07:57:52.066Z,55.33
2023-11-02T07:59:23.697Z,55.37
2023-11-02T08:00:55.330Z,55.28
2023-11-02T08:02:26.879Z,55.55
2023-11-02T08:03:58.655Z,55.73
2023-11-02T08:05:30.501Z,55.74
2023-11-02T08:07:02.481Z,55.71
2023-11-02T08:08:34.979Z,55.64
2023-11-02T08:10:07.245Z,55.64
2023-11-02T08:11:39.718Z,55.62
2023-11-02T08:13:11.404Z,55.48
2023-11-02T08:14:43.689Z,55.35
2023-11-02T08:16:20.874Z,55.28
2023-11-02T08:17:52.574Z,55.31
2023-11-02T08:19:24.268Z,55.30
2023-11-02T08:20:56.049Z,55.27
2023-11-02T08:22:29.777Z,55.54
2023-11-02T08:24:01.349Z,55.29
2023-11-02T08:25:33.043Z,55.46
2023-11-02T08:27:06.191Z,55.51
2023-11-02T08:28:37.950Z,55.42
2023-11-02T08:30:10.121Z,55.57
2023-11-02T08:31:41.758Z,55.71
2023-11-02T08:33:13.525Z,55.91
2023-11-02T08:34:45.214Z,55.69
2023-11-02T08:36:16.805Z,55.73
2023-11-02T08:37:51.194Z,55.73
2023-11-02T08:39:23.114Z,56.06
2023-11-02T08:40:54.880Z,55.88
2023-11-02T08:42:29.731Z,55.65
2023-11-02T08:44:04.494Z,55.60
2023-11-02T08:45:36.336Z,55.85
2023-11-02T08:47:08.749Z,55.76
2023-11-02T08:48:40.470Z,55.77
2023-11-02T08:50:13.068Z,55.64
2023-11-02T08:51:45.927Z,55.32
2023-11-02T08:53:17.528Z,55.20
2023-11-02T08:54:49.604Z,55.07
2023-11-02T08:56:21.365Z,55.41
2023-11-02T08:57:53.320Z,55.64
2023-11-02T08:59:24.833Z,55.80
2023-11-02T09:00:57.195Z,56.01
2023-11-02T09:02:29.330Z,55.90
2023-11-02T09:04:01.234Z,56.01
2023-11-02T09:05:32.900Z,55.66
2023-11-02T09:07:04.672Z,56.08
2023-11-02T09:08:36.731Z,55.98
2023-11-02T09:10:09.797Z,56.06
2023-11-02T09:11:41.366Z,55.94
2023-11-02T09:13:13.198Z,55.90
2023-11-02T09:14:45.391Z,55.51
2023-11-02T09:16:17.020Z,56.10
2023-11-02T09:17:48.605Z,55.63
2023-11-02T09:19:20.281Z,55.75
2023-11-02T09:20:52.368Z,55.56
2023-11-02T09:22:25.687Z,55.95
2023-11-02T09:23:59.834Z,55.92
2023-11-02T09:25:31.996Z,55.60
2023-11-02T09:27:03.669Z,56.04
2023-11-02T09:28:35.219Z,55.73
2023-11-02T09:30:07.243Z,56.08
2023-11-02T09:31:42.233Z,56.05
2023-11-02T09:33:17.985Z,55.76
2023-11-02T09:34:49.703Z,55.92
2023-11-02T09:36:21.749Z,55.78
2023-11-02T09:37:53.297Z,55.75
2023-11-02T09:39:24.959Z,55.86
2023-11-02T09:40:56.610Z,55.74
2023-11-02T09:42:30.203Z,55.39
2023-11-02T09:44:01.906Z,55.12
2023-11-02T09:45:33.599Z,55.17
2023-11-02T09:47:05.452Z,55.01
2023-11-02T09:48:37.414Z,54.85
2023-11-02T09:50:09.962Z,54.63
2023-11-02T09:51:41.754Z,54.65
2023-11-02T09:53:13.487Z,54.62
2023-11-02T09:54:48.476Z,54.47
2023-11-02T09:56:20.828Z,54.60
2023-11-02T09:57:52.696Z,54.22
2023-11-02T09:59:24.332Z,54.02
2023-11-02T10:00:56.020Z,53.97
2023-11-02T10:02:27.603Z,54.02
2023-11-02T10:03:59.207Z,53.95
2023-11-02T10:05:30.818Z,54.14
2023-11-02T10:07:02.516Z,54.25
2023-11-02T10:08:34.161Z,54.25
2023-11-02T10:10:05.978Z,54.20
2023-11-02T10:11:37.639Z,54.11
2023-11-02T10:13:09.394Z,54.12
2023-11-02T10:14:41.049Z,53.88
2023-11-02T10:16:12.961Z,53.83
2023-11-02T10:17:45.665Z,53.75
2023-11-02T10:19:18.263Z,53.91
2023-11-02T10:20:52.032Z,53.70
2023-11-02T10:22:23.727Z,53.72
2023-11-02T10:23:56.528Z,53.68
2023-11-02T10:25:29.244Z,53.35
2023-11-02T10:27:01.032Z,53.07
2023-11-02T10:28:32.886Z,52.71
2023-11-02T10:30:05.093Z,52.54
2023-11-02T10:31:37.984Z,52.63
2023-11-02T10:33:09.893Z,52.30
2023-11-02T10:34:43.305Z,52.30
2023-11-02T10:36:15.660Z,52.27
2023-11-02T10:37:47.310Z,52.15
2023-11-02T10:39:21.928Z,52.10
2023-11-02T10:40:54.182Z,51.95
2023-11-02T10:42:27.292Z,51.92
2023-11-02T10:43:59.129Z,51.73
2023-11-02T10:45:30.868Z,51.71
2023-11-02T10:47:03.080Z,51.64
2023-11-02T10:48:35.226Z,51.62
2023-11-02T10:50:07.049Z,51.74
2023-11-02T10:51:38.832Z,51.54
2023-11-02T10:53:10.817Z,51.65
2023-11-02T10:54:50.865Z,51.71
2023-11-02T10:56:22.723Z,51.51
2023-11-02T10:57:54.509Z,51.55
2023-11-02T10:59:26.073Z,51.47
2023-11-02T11:00:57.689Z,51.41
2023-11-02T11:02:29.452Z,51.35
2023-11-02T11:04:01.202Z,51.42
2023-11-02T11:05:32.877Z,51.31
2023-11-02T11:07:04.602Z,51.34
2023-11-02T11:08:36.277Z,51.16
2023-11-02T11:10:10.654Z,51.21
2023-11-02T11:11:43.993Z,51.32
2023-11-02T11:13:15.996Z,51.29
2023-11-02T11:14:47.934Z,51.45
2023-11-02T11:16:21.241Z,51.47
2023-11-02T11:17:53.101Z,51.25
2023-11-02T11:19:24.987Z,51.37
2023-11-02T11:20:56.649Z,51.45
2023-11-02T11:22:29.202Z,51.63
2023-11-02T11:24:08.701Z,51.49
2023-11-02T11:26:06.420Z,51.67
2023-11-02T11:27:38.688Z,51.82
2023-11-02T11:29:29.258Z,51.59
2023-11-02T11:31:01.111Z,51.77
2023-11-02T11:32:33.600Z,51.84
2023-11-02T11:34:05.288Z,52.00
2023-11-02T11:35:36.836Z,52.00
2023-11-02T11:37:27.183Z,51.86
2023-11-02T11:38:59.838Z,52.01
2023-11-02T11:40:33.082Z,51.70
2023-11-02T11:42:04.756Z,51.86
2023-11-02T11:43:56.281Z,51.77
2023-11-02T11:45:28.729Z,51.58
2023-11-02T11:47:04.076Z,51.50
2023-11-02T11:48:37.391Z,51.40
2023-11-02T11:50:09.047Z,51.19
2023-11-02T11:51:41.728Z,50.84
2023-11-02T11:53:13.427Z,50.71
2023-11-02T11:54:45.022Z,50.45
2023-11-02T11:56:31.960Z,50.19
2023-11-02T11:58:04.522Z,49.86
2023-11-02T11:59:54.804Z,49.56
2023-11-02T12:01:26.464Z,49.52
2023-11-02T12:03:06.353Z,49.21
2023-11-02T12:04:47.312Z,49.37
2023-11-02T12:06:37.199Z,49.16
2023-11-02T12:08:09.124Z,48.87
2023-11-02T12:09:40.746Z,48.48
2023-11-02T12:11:15.547Z,48.06
2023-11-02T12:12:47.510Z,48.10
2023-11-02T12:14:20.609Z,48.05
2023-11-02T12:15:55.777Z,47.94
2023-11-02T12:17:27.940Z,48.11
2023-11-02T12:18:59.566Z,47.79
2023-11-02T12:20:38.074Z,47.64
2023-11-02T12:22:12.034Z,47.68
2023-11-02T12:23:45.455Z,47.52
2023-11-02T12:25:20.539Z,47.50
2023-11-02T12:26:52.432Z,47.11
2023-11-02T12:28:24.375Z,46.89
2023-11-02T12:29:56.442Z,46.95
2023-11-02T12:31:31.722Z,46.73
2023-11-02T12:33:04.016Z,46.71
2023-11-02T12:34:35.858Z,46.77
2023-11-02T12:36:08.433Z,46.49
2023-11-02T12:37:39.988Z,46.47
2023-11-02T12:39:20.315Z,46.47
2023-11-02T12:40:52.323Z,46.11
2023-11-02T12:42:25.084Z,45.98
2023-11-02T12:43:59.495Z,45.35
2023-11-02T12:45:31.705Z,45.67
2023-11-02T12:47:06.226Z,45.35
2023-11-02T12:48:38.977Z,45.10
2023-11-02T12:50:29.956Z,44.88
2023-11-02T12:52:06.280Z,44.90
2023-11-02T12:53:38.960Z,44.61
2023-11-02T12:55:12.926Z,44.46
2023-11-02T12:56:45.664Z,44.32
2023-11-02T12:58:17.747Z,44.54
2023-11-02T12:59:50.338Z,44.35
2023-11-02T13:01:24.105Z,44.20
2023-11-02T13:03:10.382Z,44.38
2023-11-02T13:04:55.089Z,44.25
2023-11-02T13:06:27.844Z,44.32
2023-11-02T13:07:59.751Z,44.47
2023-11-02T13:09:31.438Z,44.28
2023-11-02T13:11:03.361Z,44.25
2023-11-02T13:12:38.009Z,44.15
2023-11-02T13:14:09.983Z,44.16
2023-11-02T13:15:42.157Z,43.89
2023-11-02T13:17:14.973Z,44.02
2023-11-02T13:18:52.489Z,44.16
2023-11-02T13:20:24.547Z,44.06
2023-11-02T13:21:56.283Z,43.81
2023-11-02T13:23:29.988Z,44.24
2023-11-02T13:25:01.978Z,43.98
2023-11-02T13:26:33.649Z,43.79
2023-11-02T13:28:08.465Z,43.53
2023-11-02T13:29:42.398Z,43.59
2023-11-02T13:31:14.244Z,43.55
2023-11-02T13:32:46.070Z,43.42
2023-11-02T13:34:17.726Z,43.68
2023-11-02T13:35:49.425Z,43.63
2023-11-02T13:37:21.150Z,43.63
2023-11-02T13:38:53.587Z,43.41
2023-11-02T13:40:28.268Z,43.24
2023-11-02T13:42:00.779Z,43.06
2023-11-02T13:43:33.130Z,42.81
2023-11-02T13:45:07.892Z,42.53
2023-11-02T13:46:40.149Z,42.61
2023-11-02T13:48:13.477Z,42.77
2023-11-02T13:49:45.046Z,42.74
2023-11-02T13:51:17.024Z,42.99
2023-11-02T13:52:48.717Z,42.76
2023-11-02T13:54:20.774Z,42.79
2023-11-02T13:55:52.536Z,42.75
2023-11-02T13:57:24.574Z,42.61
2023-11-02T13:58:56.510Z,42.76
2023-11-02T14:00:28.147Z,42.74
2023-11-02T14:01:59.778Z,42.62
2023-11-02T14:03:31.956Z,42.79
2023-11-02T14:05:04.710Z,42.92
2023-11-02T14:06:37.313Z,42.82
2023-11-02T14:08:09.038Z,42.55
2023-11-02T14:09:42.521Z,42.69
2023-11-02T14:11:14.558Z,42.45
2023-11-02T14:12:48.233Z,42.57
2023-11-02T14:14:20.002Z,42.53
2023-11-02T14:15:51.980Z,42.55
2023-11-02T14:17:24.749Z,42.46
2023-11-02T14:18:56.639Z,42.52
2023-11-02T14:20:28.256Z,42.56
2023-11-02T14:21:59.921Z,42.33
2023-11-02T14:23:31.525Z,42.55
2023-11-02T14:25:03.537Z,42.66
2023-11-02T14:26:35.318Z,42.58
2023-11-02T14:28:07.094Z,42.54
2023-11-02T14:29:38.946Z,42.45
2023-11-02T14:31:10.628Z,42.63
2023-11-02T14:32:42.897Z,42.82
2023-11-02T14:34:14.703Z,42.86
2023-11-02T14:35:46.520Z,43.04
2023-11-02T14:37:18.128Z,43.21
2023-11-02T14:38:49.797Z,43.22
2023-11-02T14:40:21.393Z,43.04
2023-11-02T14:41:53.019Z,43.32
2023-11-02T14:43:24.785Z,43.21
2023-11-02T14:44:58.486Z,43.23
2023-11-02T14:46:30.286Z,43.39
2023-11-02T14:48:02.042Z,43.42
2023-11-02T14:49:33.927Z,43.63
2023-11-02T14:51:06.059Z,43.44
2023-11-02T14:52:38.188Z,43.51
2023-11-02T14:54:09.849Z,43.51
2023-11-02T14:55:42.127Z,43.42
2023-11-02T14:57:13.716Z,43.72
2023-11-02T14:58:45.425Z,43.50
2023-11-02T15:00:20.689Z,43.43
2023-11-02T15:01:53.833Z,43.49
2023-11-02T15:03:25.575Z,43.57
2023-11-02T15:04:57.337Z,43.52
2023-11-02T15:06:30.578Z,43.66
2023-11-02T15:08:03.824Z,43.50
2023-11-02T15:09:35.643Z,43.65
2023-11-02T15:11:07.330Z,43.50
2023-11-02T15:12:41.191Z,43.54
2023-11-02T15:14:12.944Z,43.53
2023-11-02T15:15:44.760Z,43.58
2023-11-02T15:17:16.960Z,43.48
2023-11-02T15:18:48.677Z,43.71
2023-11-02T15:20:22.324Z,43.71
2023-11-02T15:21:54.072Z,43.79
2023-11-02T15:23:26.630Z,44.01
2023-11-02T15:24:58.310Z,43.89
2023-11-02T15:26:29.894Z,44.11
2023-11-02T15:28:02.297Z,44.15
2023-11-02T15:29:35.752Z,44.18
2023-11-02T15:31:07.353Z,44.24
2023-11-02T15:32:41.714Z,44.36
2023-11-02T15:34:15.367Z,44.19
2023-11-02T15:35:48.436Z,44.28
2023-11-02T15:37:20.058Z,44.66
2023-11-02T15:38:52.301Z,44.53
2023-11-02T15:40:23.983Z,44.58
2023-11-02T15:41:55.880Z,44.42
2023-11-02T15:43:27.527Z,44.68
2023-11-02T15:44:59.956Z,44.39
2023-11-02T15:46:31.981Z,44.42
2023-11-02T15:48:04.117Z,44.55
2023-11-02T15:49:39.429Z,44.46
2023-11-02T15:51:11.256Z,44.60
2023-11-02T15:52:45.212Z,44.54
2023-11-02T15:54:17.706Z,44.63
2023-11-02T15:55:49.644Z,44.73
2023-11-02T15:57:21.382Z,44.96
2023-11-02T15:58:53.506Z,45.03
2023-11-02T16:00:26.197Z,44.87
2023-11-02T16:02:07.940Z,44.92
2023-11-02T16:03:44.759Z,45.18
2023-11-02T16:05:16.494Z,45.20
2023-11-02T16:06:50.554Z,45.25
2023-11-02T16:08:23.141Z,45.42
2023-11-02T16:09:54.903Z,45.45
2023-11-02T16:11:26.521Z,45.68
2023-11-02T16:12:58.090Z,45.81
2023-11-02T16:14:30.992Z,45.87
2023-11-02T16:16:09.262Z,45.73
2023-11-02T16:17:42.577Z,45.96
2023-11-02T16:19:14.219Z,45.96
2023-11-02T16:20:45.967Z,46.30
2023-11-02T16:22:17.583Z,46.04
2023-11-02T16:23:49.165Z,46.07
2023-11-02T16:25:21.561Z,46.00
2023-11-02T16:26:55.922Z,46.23
2023-11-02T16:28:28.381Z,46.36
2023-11-02T16:29:59.913Z,46.19
2023-11-02T16:31:31.497Z,46.29
2023-11-02T16:33:04.174Z,46.50
2023-11-02T16:34:42.208Z,46.56
2023-11-02T16:36:35.366Z,46.61
2023-11-02T16:38:07.083Z,46.72
2023-11-02T16:39:41.176Z,46.59
2023-11-02T16:41:13.233Z,46.90
2023-11-02T16:42:44.959Z,47.12
2023-11-02T16:44:17.071Z,47.36
2023-11-02T16:45:48.724Z,47.54
2023-11-02T16:47:20.359Z,47.47
2023-11-02T16:48:52.523Z,47.60
2023-11-02T16:50:24.325Z,47.62
2023-11-02T16:51:56.047Z,47.72
2023-11-02T16:53:27.582Z,47.57
2023-11-02T16:54:59.313Z,47.88
2023-11-02T16:56:31.880Z,48.07
2023-11-02T16:58:03.455Z,48.08
2023-11-02T16:59:36.338Z,48.12
2023-11-02T17:01:07.953Z,48.23
2023-11-02T17:02:40.070Z,48.39
2023-11-02T17:04:11.940Z,48.55
2023-11-02T17:05:44.440Z,48.49
2023-11-02T17:07:16.029Z,48.79
2023-11-02T17:08:47.721Z,48.91
2023-11-02T17:10:19.330Z,48.64
2023-11-02T17:11:51.020Z,49.04
2023-11-02T17:13:22.955Z,49.04
2023-11-02T17:14:54.983Z,49.05
2023-11-02T17:16:27.839Z,48.66
2023-11-02T17:17:59.605Z,49.08
2023-11-02T17:19:32.025Z,49.07
2023-11-02T17:21:04.001Z,48.88
2023-11-02T17:22:35.641Z,49.02
2023-11-02T17:24:07.399Z,48.99
2023-11-02T17:25:39.005Z,49.15
2023-11-02T17:27:10.970Z,49.01
2023-11-02T17:28:43.127Z,49.32
2023-11-02T17:30:15.013Z,49.10
2023-11-02T17:31:46.707Z,49.38
2023-11-02T17:33:18.507Z,49.32
2023-11-02T17:34:50.379Z,49.32
2023-11-02T17:36:22.233Z,49.51
2023-11-02T17:37:53.813Z,49.08
2023-11-02T17:39:25.413Z,49.38
2023-11-02T17:40:57.063Z,49.31
2023-11-02T17:42:31.889Z,49.35
2023-11-02T17:44:03.552Z,49.15
2023-11-02T17:45:36.131Z,49.41
2023-11-02T17:47:08.346Z,49.29
2023-11-02T17:48:40.854Z,49.07
2023-11-02T17:50:12.808Z,48.98
2023-11-02T17:51:44.617Z,48.94
2023-11-02T17:53:16.289Z,49.23
2023-11-02T17:54:48.122Z,48.94
2023-11-02T17:56:19.687Z,48.99
2023-11-02T17:57:51.614Z,49.17
2023-11-02T17:59:23.937Z,48.94
2023-11-02T18:00:57.330Z,48.99
2023-11-02T18:02:28.999Z,48.89
2023-11-02T18:04:00.710Z,48.63
2023-11-02T18:05:32.590Z,49.13
2023-11-02T18:07:04.312Z,48.71
2023-11-02T18:08:35.973Z,48.79
2023-11-02T18:10:08.218Z,48.63
2023-11-02T18:11:39.848Z,48.68
2023-11-02T18:13:11.456Z,48.39
2023-11-02T18:14:43.417Z,48.47
2023-11-02T18:16:15.007Z,48.71
2023-11-02T18:17:47.098Z,48.78
2023-11-02T18:19:21.591Z,48.89
2023-11-02T18:20:53.211Z,48.80
2023-11-02T18:22:24.839Z,49.12
2023-11-02T18:23:57.007Z,49.07
2023-11-02T18:25:28.603Z,49.35
2023-11-02T18:27:00.248Z,49.20
2023-11-02T18:28:31.957Z,49.45
2023-11-02T18:30:04.691Z,49.36
2023-11-02T18:31:39.798Z,49.23
2023-11-02T18:33:11.585Z,49.35
2023-11-02T18:34:43.369Z,49.08
2023-11-02T18:36:15.230Z,49.37
2023-11-02T18:37:48.541Z,49.40
2023-11-02T18:39:20.437Z,49.37
2023-11-02T18:40:52.823Z,49.77
2023-11-02T18:42:26.219Z,49.26
2023-11-02T18:43:59.352Z,49.59
2023-11-02T18:45:30.932Z,49.61
2023-11-02T18:47:07.690Z,49.80
2023-11-02T18:48:39.421Z,49.95
2023-11-02T18:50:13.178Z,50.03
2023-11-02T18:51:45.996Z,50.09
2023-11-02T18:53:18.963Z,50.01
2023-11-02T18:54:57.704Z,50.31
2023-11-02T18:56:29.756Z,50.46
2023-11-02T18:58:01.683Z,50.86
2023-11-02T18:59:33.742Z,50.45
2023-11-02T19:01:05.857Z,50.51
2023-11-02T19:02:40.302Z,51.05
2023-11-02T19:04:12.315Z,50.83
2023-11-02T19:05:44.761Z,51.28
2023-11-02T19:07:16.776Z,51.07
2023-11-02T19:08:51.215Z,51.19
2023-11-02T19:10:26.590Z,51.25
2023-11-02T19:11:58.608Z,51.61
2023-11-02T19:13:31.740Z,51.58
2023-11-02T19:15:03.412Z,51.86
2023-11-02T19:16:36.053Z,51.55
2023-11-02T19:18:07.650Z,51.90
2023-11-02T19:19:40.885Z,51.81
2023-11-02T19:21:16.037Z,51.46
2023-11-02T19:22:48.975Z,51.69
2023-11-02T19:24:26.519Z,51.76
2023-11-02T19:26:00.302Z,51.52
2023-11-02T19:27:33.385Z,51.47
2023-11-02T19:29:05.233Z,51.51
2023-11-02T19:30:37.084Z,51.56
2023-11-02T19:32:09.270Z,51.63
2023-11-02T19:33:40.886Z,51.65
2023-11-02T19:35:12.568Z,52.16
2023-11-02T19:36:44.938Z,52.23
2023-11-02T19:38:17.256Z,52.38
2023-11-02T19:39:49.024Z,52.00
2023-11-02T19:41:20.651Z,51.99
2023-11-02T19:42:52.225Z,52.34
2023-11-02T19:44:23.844Z,52.11
2023-11-02T19:45:55.509Z,52.47
2023-11-02T19:47:27.237Z,52.37
2023-11-02T19:48:58.958Z,52.42
2023-11-02T19:50:30.708Z,52.33
2023-11-02T19:52:02.765Z,52.44
2023-11-02T19:53:34.815Z,52.35
2023-11-02T19:55:08.295Z,52.41
2023-11-02T19:56:46.811Z,52.43
2023-11-02T19:58:19.933Z,52.85
2023-11-02T19:59:52.096Z,52.39
2023-11-02T20:01:23.732Z,52.55
2023-11-02T20:02:55.363Z,52.51
2023-11-02T20:04:27.060Z,52.88